Time;durP1;ratioP1;P1;durP2;ratioP2;P2;SDS_P1;SDS_P2;PMS_P1;PMS_P2;Temp;Humidity;BMP_temperature;BMP_pressure;BME280_temperature;BME280_humidity;BME280_pressure;Samples;Min_cycle;Max_cycle;Signal;HPM_P1;HPM_P2
2023/03/22 00:00:55;;;;;;;17.83;9.55;;;9.90;99.90;;;;;;5046865;28;20743;-89
2023/03/22 00:03:22;;;;;;;16.85;9.40;;;9.90;99.90;;;;;;5054509;28;20516;-88
2023/03/22 00:05:48;;;;;;;21.08;9.63;;;9.90;99.90;;;;;;5064196;28;20047;-90
2023/03/22 00:08:14;;;;;;;18.40;9.80;;;9.90;99.90;;;;;;5064281;28;20036;-89
2023/03/22 00:10:41;;;;;;;16.63;9.27;;;9.90;99.90;;;;;;5046340;28;20043;-89
2023/03/22 00:13:09;;;;;;;17.70;9.40;;;10.00;99.90;;;;;;5044415;28;20043;-88
2023/03/22 00:15:35;;;;;;;15.93;8.77;;;9.90;99.90;;;;;;5064079;28;20536;-89
2023/03/22 00:18:02;;;;;;;18.63;9.52;;;9.90;99.90;;;;;;5067500;28;20043;-90
2023/03/22 00:20:35;;;;;;;18.52;9.02;;;9.90;99.90;;;;;;5066266;28;20128;-89
2023/03/22 00:23:01;;;;;;;16.70;8.70;;;9.90;99.90;;;;;;5049445;28;20067;-88
2023/03/22 00:25:27;;;;;;;16.92;7.97;;;9.90;99.90;;;;;;5049646;28;20123;-90
2023/03/22 00:27:53;;;;;;;15.27;8.18;;;9.90;99.90;;;;;;5032714;28;20533;-89
2023/03/22 00:30:19;;;;;;;15.68;7.57;;;9.80;99.90;;;;;;5062412;28;20062;-90
2023/03/22 00:32:44;;;;;;;17.73;7.43;;;9.80;99.90;;;;;;5034443;28;20047;-89
2023/03/22 00:35:11;;;;;;;16.63;7.97;;;9.80;99.90;;;;;;5049877;28;20043;-89
2023/03/22 00:37:37;;;;;;;14.27;7.25;;;9.80;99.90;;;;;;5050394;28;20037;-89
2023/03/22 00:40:13;;;;;;;14.95;7.13;;;10.30;99.90;;;;;;5066626;28;20044;-89
2023/03/22 00:42:40;;;;;;;14.82;6.93;;;9.80;99.90;;;;;;5049405;28;20068;-90
2023/03/22 00:45:08;;;;;;;15.63;7.68;;;9.70;99.90;;;;;;5066743;28;20041;-90
2023/03/22 00:47:34;;;;;;;14.23;6.43;;;9.80;99.90;;;;;;5067404;28;20388;-88
2023/03/22 00:50:01;;;;;;;15.27;6.70;;;9.80;99.90;;;;;;5067565;28;20434;-89
2023/03/22 00:52:27;;;;;;;13.10;6.22;;;9.80;99.90;;;;;;5064618;28;20053;-89
2023/03/22 00:54:53;;;;;;;15.80;6.47;;;9.80;99.90;;;;;;5021794;28;20040;-88
2023/03/22 00:57:19;;;;;;;15.68;6.18;;;9.70;99.90;;;;;;5032689;28;20049;-89
2023/03/22 00:59:45;;;;;;;14.00;6.40;;;10.00;99.90;;;;;;5035252;28;20047;-89
2023/03/22 01:02:12;;;;;;;14.32;6.53;;;9.70;99.90;;;;;;5049959;28;20040;-88
2023/03/22 01:04:45;;;;;;;14.50;6.07;;;9.70;99.90;;;;;;5047579;28;20079;-89
2023/03/22 01:07:16;;;;;;;;;;;9.70;99.90;;;;;;5047515;28;20046;-88
2023/03/22 01:09:47;;;;;;;12.10;5.60;;;9.70;99.90;;;;;;5048242;28;20280;-88
2023/03/22 01:12:12;;;;;;;16.63;6.25;;;9.60;99.90;;;;;;5049333;28;21456;-89
2023/03/22 01:14:39;;;;;;;15.07;6.10;;;9.60;99.90;;;;;;5047877;28;20029;-89
2023/03/22 01:17:06;;;;;;;14.98;6.03;;;9.60;99.90;;;;;;5046440;28;20121;-89
2023/03/22 01:19:33;;;;;;;17.83;6.38;;;9.60;99.90;;;;;;5062715;28;20044;-88
2023/03/22 01:21:58;;;;;;;12.27;5.35;;;9.60;99.90;;;;;;5048500;28;20133;-89
2023/03/22 01:24:24;;;;;;;13.07;5.90;;;9.60;99.90;;;;;;5065561;28;20072;-89
2023/03/22 01:26:50;;;;;;;14.93;5.70;;;9.60;99.90;;;;;;5030947;28;20458;-89
2023/03/22 01:29:16;;;;;;;14.07;5.40;;;9.60;99.90;;;;;;5065916;28;20045;-89
2023/03/22 01:31:43;;;;;;;15.52;5.55;;;9.60;99.90;;;;;;5063430;28;20040;-89
2023/03/22 01:34:09;;;;;;;14.77;5.38;;;9.60;99.90;;;;;;5066701;28;20101;-89
2023/03/22 01:36:35;;;;;;;14.52;5.07;;;9.60;99.90;;;;;;5049001;28;20119;-89
2023/03/22 01:39:01;;;;;;;14.55;5.28;;;9.50;99.90;;;;;;5049940;28;20087;-88
2023/03/22 01:41:27;;;;;;;14.70;5.20;;;9.60;99.90;;;;;;5046457;28;20385;-88
2023/03/22 01:44:21;;;;;;;14.27;5.32;;;9.50;99.90;;;;;;5033323;28;20165;-88
2023/03/22 01:46:49;;;;;;;14.50;4.78;;;9.50;99.90;;;;;;5058606;28;20036;-88
2023/03/22 01:49:30;;;;;;;14.38;4.25;;;9.50;99.90;;;;;;5049875;28;20036;-89
2023/03/22 01:52:03;;;;;;;12.95;4.18;;;9.50;99.90;;;;;;5046492;28;20124;-88
2023/03/22 01:54:31;;;;;;;;;;;9.50;99.90;;;;;;5047513;28;20473;-90
2023/03/22 01:56:58;;;;;;;12.07;4.10;;;9.50;99.90;;;;;;5047335;28;19928;-89
2023/03/22 01:59:24;;;;;;;10.73;3.80;;;9.50;99.90;;;;;;5049192;28;20045;-89
2023/03/22 02:01:50;;;;;;;12.80;4.05;;;9.70;99.90;;;;;;5047991;28;20574;-90
2023/03/22 02:04:18;;;;;;;13.10;4.03;;;9.50;99.90;;;;;;5032240;28;20044;-88
2023/03/22 02:06:46;;;;;;;10.20;3.38;;;9.40;99.90;;;;;;5044386;28;20040;-88
2023/03/22 02:09:16;;;;;;;13.90;3.70;;;10.20;99.90;;;;;;5047324;28;20036;-89
2023/03/22 02:12:19;;;;;;;14.45;4.03;;;9.40;99.90;;;;;;5064828;28;20080;-89
2023/03/22 02:14:50;;;;;;;11.43;3.30;;;9.40;99.90;;;;;;5046910;28;20052;-89
2023/03/22 02:17:50;;;;;;;12.82;3.58;;;9.40;99.90;;;;;;5046563;28;20063;-89
2023/03/22 02:20:54;;;;;;;10.50;3.00;;;9.40;99.90;;;;;;5060713;28;20043;-90
2023/03/22 02:23:56;;;;;;;13.57;3.70;;;9.40;99.90;;;;;;5058650;28;20051;-89
2023/03/22 02:26:38;;;;;;;11.93;3.25;;;9.40;99.90;;;;;;5061276;28;20044;-89
2023/03/22 02:29:28;;;;;;;18.33;3.95;;;9.30;99.90;;;;;;5063279;28;20123;-89
2023/03/22 02:32:29;;;;;;;10.73;2.80;;;9.30;99.90;;;;;;5060771;28;20037;-89
2023/03/22 02:35:18;;;;;;;10.52;3.20;;;9.30;99.90;;;;;;5035547;28;20206;-89
2023/03/22 02:38:28;;;;;;;11.30;2.85;;;9.30;99.90;;;;;;5062457;28;20045;-89
2023/03/22 02:41:12;;;;;;;8.80;2.78;;;9.30;99.90;;;;;;5064048;28;20117;-89
2023/03/22 02:44:09;;;;;;;13.82;3.72;;;9.30;99.90;;;;;;5062670;28;20040;-89
2023/03/22 02:47:05;;;;;;;11.80;2.78;;;9.30;99.90;;;;;;5066510;28;20068;-88
2023/03/22 02:49:41;;;;;;;11.48;2.78;;;9.30;99.90;;;;;;5065358;28;20140;-88
2023/03/22 02:52:24;;;;;;;12.52;3.30;;;9.30;99.90;;;;;;5048594;28;20044;-89
2023/03/22 02:55:15;;;;;;;9.88;2.92;;;9.30;99.90;;;;;;5060741;28;20028;-89
2023/03/22 02:57:48;;;;;;;14.23;2.70;;;9.30;99.90;;;;;;5057831;28;20059;-89
2023/03/22 03:00:17;;;;;;;11.48;3.17;;;9.30;99.90;;;;;;5061494;28;20040;-90
2023/03/22 03:02:47;;;;;;;11.40;2.60;;;9.30;99.90;;;;;;5047385;28;20080;-89
2023/03/22 03:05:15;;;;;;;14.00;3.55;;;9.30;99.90;;;;;;5043695;28;20044;-89
2023/03/22 03:07:45;;;;;;;13.80;3.30;;;9.30;99.90;;;;;;5050590;28;20044;-89
2023/03/22 03:10:13;;;;;;;10.25;2.70;;;9.40;99.90;;;;;;5062504;28;20120;-88
2023/03/22 03:12:39;;;;;;;12.50;3.05;;;9.50;99.90;;;;;;5064151;28;20259;-88
2023/03/22 03:15:15;;;;;;;13.68;2.85;;;9.40;99.90;;;;;;5030093;28;20336;-91
2023/03/22 03:17:53;;;;;;;11.45;3.22;;;9.40;99.90;;;;;;5046470;28;20039;-89
2023/03/22 03:20:33;;;;;;;17.25;2.80;;;9.70;99.90;;;;;;5064391;28;20552;-89
2023/03/22 03:22:59;;;;;;;10.02;2.53;;;9.40;99.90;;;;;;5061222;28;20040;-89
2023/03/22 03:25:37;;;;;;;13.95;3.05;;;9.50;99.90;;;;;;5060872;28;20036;-89
2023/03/22 03:28:37;;;;;;;9.40;2.60;;;9.40;99.90;;;;;;5045070;28;20103;-89
2023/03/22 03:31:24;;;;;;;10.05;2.70;;;9.40;99.90;;;;;;5043716;28;20055;-89
2023/03/22 03:34:09;;;;;;;12.48;2.72;;;9.40;99.90;;;;;;5047580;28;20047;-89
2023/03/22 03:36:39;;;;;;;10.68;2.75;;;9.40;99.90;;;;;;5047348;28;20032;-88
2023/03/22 03:39:10;;;;;;;10.25;2.63;;;9.40;99.90;;;;;;5064658;28;20115;-88
2023/03/22 03:41:38;;;;;;;10.57;2.30;;;9.40;99.90;;;;;;5063702;28;20039;-88
2023/03/22 03:44:05;;;;;;;12.68;2.92;;;9.40;99.90;;;;;;5047050;28;20044;-89
2023/03/22 03:46:31;;;;;;;14.82;2.85;;;9.40;99.90;;;;;;5046377;28;20040;-89
2023/03/22 03:48:57;;;;;;;12.20;2.80;;;9.40;99.90;;;;;;5046659;28;20474;-87
2023/03/22 03:51:25;;;;;;;12.23;2.67;;;9.50;99.90;;;;;;5050736;28;20463;-88
2023/03/22 03:53:51;;;;;;;10.75;2.65;;;9.40;99.90;;;;;;5067739;28;20032;-89
2023/03/22 03:56:17;;;;;;;13.15;2.92;;;9.40;99.90;;;;;;5065280;28;20508;-89
2023/03/22 03:58:42;;;;;;;15.65;3.03;;;9.40;99.90;;;;;;5049205;28;20055;-88
2023/03/22 04:01:08;;;;;;;12.48;3.00;;;9.40;99.90;;;;;;5048561;28;20094;-88
2023/03/22 04:03:35;;;;;;;11.82;2.70;;;9.40;99.90;;;;;;5067270;28;20052;-90
2023/03/22 04:06:01;;;;;;;10.93;3.22;;;9.40;99.90;;;;;;5049760;28;20086;-89
2023/03/22 04:08:26;;;;;;;13.00;3.05;;;9.40;99.90;;;;;;5066086;28;20083;-89
2023/03/22 04:10:52;;;;;;;11.02;2.72;;;9.40;99.90;;;;;;5051590;28;20049;-88
2023/03/22 04:13:23;;;;;;;15.85;3.00;;;9.50;99.90;;;;;;5034462;28;20451;-89
2023/03/22 04:15:54;;;;;;;11.35;2.80;;;9.50;99.90;;;;;;5067658;28;20040;-89
2023/03/22 04:18:20;;;;;;;11.25;2.70;;;9.50;99.90;;;;;;5050378;28;20045;-88
2023/03/22 04:20:48;;;;;;;12.07;3.25;;;9.40;99.90;;;;;;5047427;28;20378;-89
2023/03/22 04:23:14;;;;;;;13.60;3.58;;;;;;;;;;5066098;28;20093;-87
2023/03/22 04:25:40;;;;;;;11.35;3.08;;;10.20;99.90;;;;;;5048731;28;20071;-88
2023/03/22 04:28:06;;;;;;;11.68;3.05;;;9.40;99.90;;;;;;5034342;28;20076;-89
2023/03/22 04:30:34;;;;;;;12.93;3.10;;;9.40;99.90;;;;;;5047568;28;20036;-88
2023/03/22 04:33:05;;;;;;;11.70;3.05;;;9.40;99.90;;;;;;5066156;28;20040;-88
2023/03/22 04:35:33;;;;;;;12.10;3.13;;;9.40;99.90;;;;;;5032387;28;20068;-89
2023/03/22 04:38:00;;;;;;;12.55;3.22;;;9.50;99.90;;;;;;5011252;28;20044;-89
2023/03/22 04:40:27;;;;;;;11.27;3.05;;;9.50;99.90;;;;;;5031630;28;20033;-90
2023/03/22 04:42:56;;;;;;;11.93;2.80;;;;;;;;;;5048908;28;20102;-88
2023/03/22 04:45:22;;;;;;;10.00;3.30;;;9.40;99.90;;;;;;5065050;28;20048;-89
2023/03/22 04:47:48;;;;;;;10.82;3.28;;;9.50;99.90;;;;;;5062495;28;20067;-89
2023/03/22 04:50:14;;;;;;;11.73;3.40;;;9.40;99.90;;;;;;5066351;28;20044;-89
2023/03/22 04:52:40;;;;;;;13.15;3.85;;;9.50;99.90;;;;;;5033375;28;20056;-89
2023/03/22 04:55:06;;;;;;;13.32;3.60;;;9.50;99.90;;;;;;5049947;28;20048;-89
2023/03/22 04:57:34;;;;;;;13.07;3.90;;;9.40;99.90;;;;;;5031810;28;20045;-90
2023/03/22 04:59:59;;;;;;;10.50;3.80;;;9.40;99.90;;;;;;5048307;28;20071;-89
2023/03/22 05:02:25;;;;;;;13.15;4.88;;;9.50;99.90;;;;;;5048352;28;20120;-88
2023/03/22 05:04:51;;;;;;;13.55;4.55;;;9.50;99.90;;;;;;5049330;28;20115;-88
2023/03/22 05:07:17;;;;;;;11.65;4.65;;;9.50;99.90;;;;;;5032774;28;20037;-88
2023/03/22 05:09:42;;;;;;;13.05;4.35;;;9.50;99.90;;;;;;5047061;28;20040;-89
2023/03/22 05:12:08;;;;;;;13.77;4.93;;;9.50;99.90;;;;;;5047464;28;20048;-89
2023/03/22 05:14:34;;;;;;;15.50;5.63;;;9.50;99.90;;;;;;5032282;28;20037;-87
2023/03/22 05:17:00;;;;;;;14.30;5.80;;;;;;;;;;5034018;28;20500;-89
2023/03/22 05:19:26;;;;;;;14.90;6.18;;;9.50;99.90;;;;;;5065377;28;20032;-89
2023/03/22 05:21:57;;;;;;;13.68;5.50;;;9.60;99.90;;;;;;5049885;28;20370;-89
2023/03/22 05:24:22;;;;;;;15.07;6.05;;;9.60;99.90;;;;;;5033449;28;20044;-89
2023/03/22 05:26:52;;;;;;;14.60;6.07;;;9.60;99.90;;;;;;5029452;28;20130;-89
2023/03/22 05:29:18;;;;;;;16.30;6.95;;;9.60;99.90;;;;;;5023208;28;20119;-89
2023/03/22 05:31:44;;;;;;;17.60;7.25;;;9.60;99.90;;;;;;5046037;28;20123;-89
2023/03/22 05:34:10;;;;;;;15.10;7.65;;;9.60;99.90;;;;;;5049827;28;20103;-90
2023/03/22 05:36:35;;;;;;;13.80;6.90;;;10.00;99.90;;;;;;5046441;28;20382;-90
2023/03/22 05:39:03;;;;;;;13.65;6.63;;;9.60;99.90;;;;;;5063844;28;20044;-89
2023/03/22 05:41:32;;;;;;;15.98;7.60;;;9.70;99.90;;;;;;5045901;28;20508;-89
2023/03/22 05:43:59;;;;;;;18.30;7.47;;;9.60;99.90;;;;;;5066038;28;20562;-90
2023/03/22 05:46:24;;;;;;;15.55;7.38;;;9.60;99.90;;;;;;5064368;28;20100;-88
2023/03/22 05:48:50;;;;;;;16.45;7.65;;;9.70;99.90;;;;;;5027961;28;20056;-89
2023/03/22 05:51:16;;;;;;;15.15;7.20;;;9.60;99.90;;;;;;5031724;28;20317;-89
2023/03/22 05:53:44;;;;;;;20.08;8.25;;;9.70;99.90;;;;;;5048818;28;20160;-89
2023/03/22 05:56:10;;;;;;;16.10;7.97;;;9.70;99.90;;;;;;5065841;28;20033;-89
2023/03/22 05:58:36;;;;;;;17.60;8.20;;;9.70;99.90;;;;;;5028528;28;20052;-87
2023/03/22 06:01:10;;;;;;;18.45;8.52;;;9.70;99.90;;;;;;5048388;28;20068;-87
2023/03/22 06:03:37;;;;;;;16.38;8.73;;;9.70;99.90;;;;;;5042755;28;20088;-89
2023/03/22 06:06:09;;;;;;;18.80;8.35;;;9.80;99.90;;;;;;5061663;28;20187;-88
2023/03/22 06:08:38;;;;;;;16.15;8.80;;;9.80;99.90;;;;;;5045280;28;20063;-89
2023/03/22 06:11:06;;;;;;;16.60;8.57;;;9.80;99.90;;;;;;5048277;28;20417;-90
2023/03/22 06:13:32;;;;;;;17.98;8.45;;;9.80;99.90;;;;;;5048035;28;20113;-89
2023/03/22 06:16:02;;;;;;;17.33;8.95;;;9.80;99.90;;;;;;5045093;28;20051;-88
2023/03/22 06:18:29;;;;;;;17.75;8.77;;;9.90;99.90;;;;;;5064293;28;20032;-88
2023/03/22 06:20:56;;;;;;;15.05;8.52;;;9.90;99.90;;;;;;5061410;28;20051;-90
2023/03/22 06:23:21;;;;;;;19.50;9.20;;;9.90;99.90;;;;;;5062072;28;20191;-89
2023/03/22 06:25:47;;;;;;;18.00;8.95;;;9.90;99.90;;;;;;5029955;28;20135;-89
2023/03/22 06:28:13;;;;;;;19.15;9.98;;;9.90;99.90;;;;;;5065455;28;20041;-88
2023/03/22 06:30:39;;;;;;;18.80;8.63;;;9.90;99.90;;;;;;5045049;28;20207;-89
2023/03/22 06:33:05;;;;;;;16.48;8.80;;;9.90;99.90;;;;;;5038866;28;20087;-87
2023/03/22 06:35:34;;;;;;;16.85;8.50;;;10.00;99.90;;;;;;5041824;28;20044;-87
2023/03/22 06:38:00;;;;;;;17.02;9.25;;;10.00;99.90;;;;;;5064133;28;20048;-88
2023/03/22 06:40:26;;;;;;;16.00;8.40;;;10.10;99.90;;;;;;5047102;28;20036;-88
2023/03/22 06:42:53;;;;;;;20.15;10.05;;;10.10;99.90;;;;;;5046206;28;20047;-87
2023/03/22 06:45:20;;;;;;;17.08;8.80;;;10.10;99.90;;;;;;5054314;28;20032;-88
2023/03/22 06:47:46;;;;;;;18.42;8.82;;;10.10;99.90;;;;;;5047307;28;20527;-88
2023/03/22 06:50:13;;;;;;;16.25;8.98;;;10.10;99.90;;;;;;5031439;28;20064;-87
2023/03/22 06:52:39;;;;;;;19.70;9.88;;;10.10;99.90;;;;;;5063439;28;20146;-89
2023/03/22 06:55:05;;;;;;;17.83;8.88;;;10.10;99.90;;;;;;5029778;28;20044;-87
2023/03/22 06:57:31;;;;;;;16.45;9.07;;;11.20;99.90;;;;;;5046185;28;20520;-88
2023/03/22 06:59:56;;;;;;;15.35;8.27;;;10.20;99.90;;;;;;5047688;28;20041;-87
2023/03/22 07:02:22;;;;;;;18.05;8.40;;;10.30;99.90;;;;;;5046546;28;20036;-87
2023/03/22 07:04:48;;;;;;;16.60;8.60;;;10.30;99.90;;;;;;5013852;28;20071;-87
2023/03/22 07:07:14;;;;;;;16.42;8.27;;;10.30;99.90;;;;;;5044595;28;20180;-89
2023/03/22 07:09:40;;;;;;;17.23;8.40;;;10.40;99.90;;;;;;5030362;28;20127;-87
2023/03/22 07:12:05;;;;;;;16.60;9.02;;;10.40;99.90;;;;;;5047996;28;20116;-88
2023/03/22 07:14:32;;;;;;;19.63;8.98;;;10.40;99.90;;;;;;5030171;28;20043;-87
2023/03/22 07:16:58;;;;;;;16.30;8.30;;;10.60;99.90;;;;;;5047043;28;20045;-87
2023/03/22 07:19:24;;;;;;;15.15;7.85;;;10.60;99.90;;;;;;5034088;28;20093;-87
2023/03/22 07:21:51;;;;;;;15.55;8.30;;;;;;;;;;5062269;28;20108;-90
2023/03/22 07:24:16;;;;;;;17.08;8.60;;;10.70;99.90;;;;;;5060315;28;20033;-88
2023/03/22 07:26:42;;;;;;;17.40;7.88;;;10.70;99.90;;;;;;5058985;28;20059;-88
2023/03/22 07:29:08;;;;;;;16.83;8.27;;;10.70;99.90;;;;;;5027810;28;20048;-90
2023/03/22 07:31:35;;;;;;;17.05;8.18;;;10.70;99.90;;;;;;5044519;28;20101;-87
2023/03/22 07:34:02;;;;;;;16.45;8.15;;;10.60;99.90;;;;;;5043238;28;20131;-87
2023/03/22 07:36:28;;;;;;;14.98;8.23;;;10.60;99.90;;;;;;5044862;28;20501;-89
2023/03/22 07:38:54;;;;;;;16.25;7.95;;;10.70;99.90;;;;;;5060011;28;20340;-87
2023/03/22 07:41:22;;;;;;;16.77;7.38;;;10.70;99.90;;;;;;5025578;28;20032;-87
2023/03/22 07:43:49;;;;;;;15.70;7.75;;;10.70;99.90;;;;;;5061645;28;20037;-88
2023/03/22 07:46:14;;;;;;;14.60;8.05;;;10.70;99.90;;;;;;5027207;28;21325;-89
2023/03/22 07:48:41;;;;;;;17.77;7.78;;;10.60;99.90;;;;;;5025354;28;20139;-88
2023/03/22 07:51:07;;;;;;;15.90;7.80;;;10.60;99.90;;;;;;5042125;28;20052;-88
2023/03/22 07:53:32;;;;;;;13.77;7.30;;;10.60;99.90;;;;;;5039433;28;21235;-91
2023/03/22 07:55:58;;;;;;;17.45;7.85;;;10.60;99.90;;;;;;5046030;28;20072;-89
2023/03/22 07:58:24;;;;;;;18.25;8.00;;;10.60;99.90;;;;;;5047747;28;20080;-90
2023/03/22 08:00:50;;;;;;;17.17;7.95;;;12.80;99.90;;;;;;5057672;28;20040;-90
2023/03/22 08:03:15;;;;;;;14.00;7.00;;;10.50;99.90;;;;;;5037240;28;20033;-90
2023/03/22 08:05:42;;;;;;;17.02;6.90;;;10.50;99.90;;;;;;5052706;28;20069;-90
2023/03/22 08:08:08;;;;;;;15.77;6.47;;;10.50;99.90;;;;;;5050237;28;20045;-89
2023/03/22 08:10:34;;;;;;;14.48;6.40;;;10.60;99.90;;;;;;5029443;28;20032;-87
2023/03/22 08:13:00;;;;;;;13.73;6.32;;;10.60;99.90;;;;;;5029144;28;20550;-87
2023/03/22 08:15:26;;;;;;;12.57;6.22;;;10.70;99.90;;;;;;5059545;28;20070;-88
2023/03/22 08:17:56;;;;;;;14.32;6.47;;;10.90;99.90;;;;;;5059514;28;20078;-87
2023/03/22 08:20:26;;;;;;;15.43;6.35;;;11.00;99.90;;;;;;5045447;28;20025;-90
2023/03/22 08:22:52;;;;;;;14.63;6.70;;;11.10;99.90;;;;;;5044158;28;20033;-89
2023/03/22 08:25:18;;;;;;;14.68;5.72;;;11.10;99.90;;;;;;5042622;28;20040;-90
2023/03/22 08:27:44;;;;;;;11.82;5.65;;;11.10;99.90;;;;;;5060337;28;21026;-90
2023/03/22 08:30:10;;;;;;;18.83;6.20;;;11.60;99.90;;;;;;5028114;28;20044;-90
2023/03/22 08:32:36;;;;;;;14.52;5.88;;;10.90;99.90;;;;;;5040477;28;20037;-89
2023/03/22 08:35:05;;;;;;;12.73;5.50;;;10.90;99.90;;;;;;5058318;28;20059;-89
2023/03/22 08:37:31;;;;;;;15.48;5.70;;;10.90;99.90;;;;;;5064582;28;20033;-89
2023/03/22 08:39:56;;;;;;;13.23;5.60;;;11.00;99.90;;;;;;5028619;28;20051;-91
2023/03/22 08:42:22;;;;;;;12.95;5.38;;;10.90;99.90;;;;;;5031518;28;20064;-88
2023/03/22 08:44:50;;;;;;;13.25;5.90;;;10.90;99.90;;;;;;5029184;28;21220;-91
2023/03/22 08:47:16;;;;;;;13.98;5.15;;;10.90;99.90;;;;;;5036152;28;20032;-91
2023/03/22 08:49:42;;;;;;;12.32;5.03;;;11.00;99.90;;;;;;5066756;28;20119;-90
2023/03/22 08:52:08;;;;;;;12.43;4.82;;;11.00;99.90;;;;;;5033122;28;20119;-90
2023/03/22 08:54:34;;;;;;;15.05;5.30;;;11.10;99.90;;;;;;5063437;28;20064;-92
2023/03/22 08:57:02;;;;;;;11.25;4.88;;;11.10;99.90;;;;;;5049620;28;20566;-88
2023/03/22 08:59:28;;;;;;;13.80;4.93;;;11.10;99.90;;;;;;5029800;28;20044;-90
2023/03/22 09:01:53;;;;;;;12.35;4.55;;;11.10;99.90;;;;;;5049765;28;20048;-87
2023/03/22 09:04:25;;;;;;;13.10;4.50;;;11.20;99.90;;;;;;5061299;28;20067;-88
2023/03/22 09:06:51;;;;;;;12.68;4.70;;;;;;;;;;5046783;28;20124;-90
2023/03/22 09:09:17;;;;;;;13.77;4.90;;;11.40;99.90;;;;;;5047251;28;20048;-89
2023/03/22 09:11:46;;;;;;;11.68;4.35;;;11.40;99.90;;;;;;5051579;28;20044;-88
2023/03/22 09:14:12;;;;;;;12.55;4.28;;;11.50;99.90;;;;;;5045105;28;20651;-89
2023/03/22 09:16:37;;;;;;;12.27;4.53;;;11.50;99.90;;;;;;5046367;28;20520;-90
2023/03/22 09:19:03;;;;;;;16.80;4.75;;;11.50;99.90;;;;;;5041199;28;20040;-90
2023/03/22 09:21:31;;;;;;;13.23;4.38;;;11.50;99.90;;;;;;5051817;28;20090;-91
2023/03/22 09:24:00;;;;;;;12.40;4.30;;;11.40;99.90;;;;;;5063181;28;20045;-92
2023/03/22 09:26:25;;;;;;;15.60;4.30;;;11.40;99.90;;;;;;5050180;28;20413;-92
2023/03/22 09:28:51;;;;;;;14.50;4.47;;;12.80;99.90;;;;;;5034179;28;20067;-90
2023/03/22 09:31:17;;;;;;;15.13;4.72;;;11.30;99.90;;;;;;5030041;28;20063;-89
2023/03/22 09:33:43;;;;;;;12.40;4.07;;;11.30;99.90;;;;;;5046754;28;20493;-92
2023/03/22 09:36:10;;;;;;;13.35;3.90;;;10.30;99.90;;;;;;5065602;28;20040;-92
2023/03/22 09:38:37;;;;;;;13.40;4.57;;;11.40;99.90;;;;;;5043651;28;20037;-91
2023/03/22 09:41:21;;;;;;;13.40;4.00;;;11.40;99.90;;;;;;5060752;28;20511;-88
2023/03/22 09:44:00;;;;;;;15.20;4.30;;;11.50;99.90;;;;;;5062457;28;20125;-88
2023/03/22 09:46:39;;;;;;;12.77;4.00;;;11.50;99.90;;;;;;5048509;28;20583;-91
2023/03/22 09:49:13;;;;;;;14.07;3.80;;;10.20;99.90;;;;;;5047577;28;20173;-93
2023/03/22 09:51:45;;;;;;;10.98;3.60;;;11.50;99.90;;;;;;5065707;28;20040;-91
2023/03/22 09:54:20;;;;;;;13.70;3.78;;;11.60;99.90;;;;;;5045228;28;20040;-90
2023/03/22 09:57:04;;;;;;;13.45;3.72;;;11.60;99.90;;;;;;5064641;28;20041;-89
2023/03/22 09:59:38;;;;;;;11.85;3.58;;;11.60;99.90;;;;;;5064688;28;20514;-90
2023/03/22 10:02:21;;;;;;;12.35;3.70;;;11.60;99.90;;;;;;5061266;28;20048;-92
2023/03/22 10:05:10;;;;;;;10.45;3.70;;;11.10;99.90;;;;;;5057076;28;20100;-88
2023/03/22 10:07:51;;;;;;;13.18;3.60;;;11.40;99.90;;;;;;5060560;28;20033;-87
2023/03/22 10:10:20;;;;;;;14.10;4.63;;;11.40;99.90;;;;;;5046507;28;20037;-89
2023/03/22 10:13:12;;;;;;;10.75;3.55;;;11.30;99.90;;;;;;5064447;28;20496;-90
2023/03/22 10:15:57;;;;;;;;;;;;;;;;;;;;;
2023/03/22 10:19:12;;;;;;;11.32;3.88;;;11.10;99.90;;;;;;5062462;28;20036;-91
2023/03/22 10:21:38;;;;;;;12.70;4.25;;;11.10;99.90;;;;;;5029911;28;20054;-90
2023/03/22 10:24:21;;;;;;;12.55;3.72;;;11.10;99.90;;;;;;5061218;28;20778;-90
2023/03/22 10:26:48;;;;;;;12.23;4.00;;;12.40;99.90;;;;;;5063350;28;20041;-92
2023/03/22 10:29:53;;;;;;;11.80;3.50;;;11.00;99.90;;;;;;5046732;28;20302;-91
2023/03/22 10:32:40;;;;;;;10.68;3.45;;;11.00;99.90;;;;;;5015858;28;20105;-88
2023/03/22 10:35:08;;;;;;;12.73;3.53;;;11.00;99.90;;;;;;5063702;28;20517;-90
2023/03/22 10:37:36;;;;;;;11.85;3.47;;;10.80;99.90;;;;;;5065326;28;20241;-89
2023/03/22 10:40:07;;;;;;;12.10;3.53;;;10.80;99.90;;;;;;5062585;28;20086;-91
2023/03/22 10:42:39;;;;;;;10.13;3.65;;;10.80;99.90;;;;;;5049099;28;20040;-89
2023/03/22 10:45:11;;;;;;;11.23;3.38;;;10.80;99.90;;;;;;5060478;28;20064;-90
2023/03/22 10:47:47;;;;;;;11.60;3.50;;;10.80;99.90;;;;;;5044975;28;20029;-91
2023/03/22 10:50:28;;;;;;;11.00;3.75;;;10.80;99.90;;;;;;5045374;28;20044;-88
2023/03/22 10:53:18;;;;;;;11.88;3.60;;;10.70;99.90;;;;;;5060862;28;20445;-90
2023/03/22 10:55:47;;;;;;;13.13;3.97;;;10.70;99.90;;;;;;5045041;28;20041;-89
2023/03/22 10:58:21;;;;;;;13.35;4.10;;;10.60;99.90;;;;;;5039269;28;20048;-91
2023/03/22 11:00:58;;;;;;;11.70;4.15;;;10.60;99.90;;;;;;5061155;28;20044;-90
2023/03/22 11:03:30;;;;;;;13.23;3.80;;;10.60;99.90;;;;;;5062147;28;20098;-90
2023/03/22 11:06:14;;;;;;;12.30;4.27;;;10.60;99.90;;;;;;5048864;28;20036;-93
2023/03/22 11:08:49;;;;;;;12.30;3.67;;;10.60;99.90;;;;;;5065324;28;20040;-92
2023/03/22 11:11:34;;;;;;;13.10;3.85;;;10.60;99.90;;;;;;5052632;28;20044;-93
2023/03/22 11:14:09;;;;;;;11.82;3.78;;;10.60;99.90;;;;;;5052180;28;20322;-92
2023/03/22 11:16:55;;;;;;;11.07;3.70;;;11.00;99.90;;;;;;5065986;28;20045;-93
2023/03/22 11:19:27;;;;;;;12.38;3.65;;;10.60;99.90;;;;;;5053021;28;20032;-91
2023/03/22 11:21:56;;;;;;;12.73;3.58;;;10.60;99.90;;;;;;5049787;28;20124;-93
2023/03/22 11:24:28;;;;;;;10.05;3.63;;;10.60;99.90;;;;;;5052504;28;20040;-93
2023/03/22 11:27:07;;;;;;;12.80;3.85;;;10.60;99.90;;;;;;5069471;28;20657;-93
2023/03/22 11:29:48;;;;;;;10.90;3.95;;;10.60;99.90;;;;;;5086173;28;20056;-92
2023/03/22 11:32:31;;;;;;;10.70;4.13;;;10.70;99.90;;;;;;5070971;28;20037;-92
2023/03/22 11:35:21;;;;;;;10.10;3.38;;;10.60;99.90;;;;;;5074357;28;20036;-92
2023/03/22 11:37:52;;;;;;;11.00;3.80;;;10.60;99.90;;;;;;5069859;28;20040;-92
2023/03/22 11:40:25;;;;;;;10.55;3.40;;;10.60;99.90;;;;;;5051381;28;20071;-91
2023/03/22 11:42:55;;;;;;;;;;;10.70;99.90;;;;;;5085960;28;20041;-93
2023/03/22 11:45:35;;;;;;;9.02;3.20;;;10.70;99.90;;;;;;5052443;28;19966;-91
2023/03/22 11:48:07;;;;;;;12.05;3.42;;;11.80;99.90;;;;;;5056739;28;20119;-90
2023/03/22 11:50:37;;;;;;;10.70;3.40;;;10.60;99.90;;;;;;5053758;28;20040;-91
2023/03/22 11:53:07;;;;;;;8.77;3.30;;;10.70;99.90;;;;;;5049233;28;20116;-94
2023/03/22 11:55:35;;;;;;;10.98;3.50;;;10.70;99.90;;;;;;5051912;28;20072;-92
2023/03/22 11:58:05;;;;;;;11.35;3.70;;;10.70;99.90;;;;;;5047908;28;20538;-91
2023/03/22 12:00:36;;;;;;;10.90;3.90;;;10.60;99.90;;;;;;5057808;28;20076;-91
2023/03/22 12:03:05;;;;;;;11.43;3.30;;;10.60;99.90;;;;;;5044649;28;20036;-92
2023/03/22 12:05:35;;;;;;;12.70;3.83;;;10.60;99.90;;;;;;5046999;28;20480;-90
2023/03/22 12:08:10;;;;;;;11.07;3.65;;;10.70;99.90;;;;;;5061621;28;20592;-91
2023/03/22 12:10:40;;;;;;;13.80;3.80;;;10.70;99.90;;;;;;5044665;28;20037;-89
2023/03/22 12:13:42;;;;;;;10.45;3.20;;;10.70;99.90;;;;;;5046421;28;20045;-88
2023/03/22 12:16:11;;;;;;;11.65;3.50;;;10.70;99.90;;;;;;5065787;28;20052;-91
2023/03/22 12:18:49;;;;;;;11.88;3.70;;;10.60;99.90;;;;;;5064182;28;20028;-91
2023/03/22 12:21:18;;;;;;;9.15;3.05;;;10.60;99.90;;;;;;5066957;28;20110;-92
2023/03/22 12:23:44;;;;;;;8.55;3.17;;;10.60;99.90;;;;;;5071446;28;20404;-93
2023/03/22 12:26:25;;;;;;;10.13;3.13;;;9.20;99.90;;;;;;5052051;28;20129;-90
2023/03/22 12:28:54;;;;;;;9.95;3.42;;;10.60;99.90;;;;;;5052882;28;20055;-92
2023/03/22 12:31:25;;;;;;;13.15;3.42;;;10.60;99.90;;;;;;5067961;28;20043;-93
2023/03/22 12:33:54;;;;;;;10.20;3.05;;;10.50;99.90;;;;;;5054535;28;20040;-93
2023/03/22 12:36:40;;;;;;;11.10;3.42;;;10.60;99.90;;;;;;5069891;28;20045;-92
2023/03/22 12:39:12;;;;;;;9.02;3.00;;;10.60;99.90;;;;;;5054453;28;20214;-92
2023/03/22 12:41:46;;;;;;;13.63;3.53;;;10.60;99.90;;;;;;5071824;28;20044;-94
2023/03/22 12:44:57;;;;;;;10.25;3.30;;;10.60;99.90;;;;;;5053996;28;20041;-92
2023/03/22 12:47:40;;;;;;;9.68;3.63;;;10.60;99.90;;;;;;5034994;28;20051;-91
2023/03/22 12:50:18;;;;;;;10.20;3.30;;;10.60;99.90;;;;;;5052043;28;20048;-91
2023/03/22 12:52:46;;;;;;;9.18;3.30;;;10.60;99.90;;;;;;5067695;28;20041;-91
2023/03/22 12:55:30;;;;;;;11.20;3.70;;;10.50;99.90;;;;;;5068854;28;20159;-90
2023/03/22 12:57:57;;;;;;;9.60;3.63;;;10.50;99.90;;;;;;5063862;28;20306;-90
2023/03/22 13:00:39;;;;;;;11.77;3.90;;;10.50;99.90;;;;;;5047822;28;20071;-91
2023/03/22 13:03:19;;;;;;;10.57;3.70;;;11.80;99.90;;;;;;5064054;28;20071;-89
2023/03/22 13:05:56;;;;;;;11.05;4.15;;;10.40;99.90;;;;;;5047979;28;20507;-91